createdAt,value
2023-05-25T00:00:02.165Z,25.91
2023-05-25T00:01:03.342Z,25.88
2023-05-25T00:02:02.264Z,25.91
2023-05-25T00:03:02.341Z,25.88
2023-05-25T00:04:02.295Z,25.90
2023-05-25T00:05:02.230Z,25.90
2023-05-25T00:06:02.236Z,25.88
2023-05-25T00:07:02.221Z,25.88
2023-05-25T00:08:02.218Z,25.90
2023-05-25T00:09:02.220Z,25.90
2023-05-25T00:10:02.243Z,25.91
2023-05-25T00:11:02.215Z,25.90
2023-05-25T00:12:02.209Z,25.90
2023-05-25T00:13:02.204Z,25.88
2023-05-25T00:14:02.207Z,25.87
2023-05-25T00:15:02.207Z,25.85
2023-05-25T00:16:02.228Z,25.87
2023-05-25T00:17:02.249Z,25.90
2023-05-25T00:18:02.289Z,25.88
2023-05-25T00:19:02.215Z,25.85
2023-05-25T00:20:02.298Z,25.88
2023-05-25T00:21:02.204Z,25.88
2023-05-25T00:22:02.221Z,25.85
2023-05-25T00:23:02.190Z,25.85
2023-05-25T00:24:02.197Z,25.84
2023-05-25T00:25:02.218Z,25.84
2023-05-25T00:26:02.196Z,25.87
2023-05-25T00:27:02.193Z,25.87
2023-05-25T00:28:02.186Z,25.85
2023-05-25T00:29:02.190Z,25.84
2023-05-25T00:30:02.190Z,25.85
2023-05-25T00:31:02.211Z,25.88
2023-05-25T00:32:02.177Z,25.87
2023-05-25T00:33:02.277Z,25.84
2023-05-25T00:34:02.184Z,25.84
2023-05-25T00:35:02.186Z,25.85
2023-05-25T00:36:02.200Z,25.84
2023-05-25T00:37:02.188Z,25.84
2023-05-25T00:38:02.207Z,25.84
2023-05-25T00:39:02.218Z,25.84
2023-05-25T00:40:02.290Z,25.84
2023-05-25T00:41:02.214Z,25.84
2023-05-25T00:42:02.221Z,25.84
2023-05-25T00:43:02.244Z,25.85
2023-05-25T00:44:02.261Z,25.84
2023-05-25T00:45:02.244Z,25.85
2023-05-25T00:46:02.290Z,25.84
2023-05-25T00:47:02.257Z,25.84
2023-05-25T00:48:02.330Z,25.84
2023-05-25T00:49:02.275Z,25.83
2023-05-25T00:50:02.336Z,25.84
2023-05-25T00:51:02.299Z,25.84
2023-05-25T00:52:02.317Z,25.84
2023-05-25T00:53:02.353Z,25.83
2023-05-25T00:54:02.335Z,25.85
2023-05-25T00:55:02.328Z,25.83
2023-05-25T00:56:02.442Z,25.83
2023-05-25T00:57:02.359Z,25.84
2023-05-25T00:58:02.400Z,25.85
2023-05-25T00:59:02.373Z,25.84
2023-05-25T01:00:02.377Z,25.81
2023-05-25T01:01:02.386Z,25.83
2023-05-25T01:02:02.449Z,25.83
2023-05-25T01:03:02.481Z,25.81
2023-05-25T01:04:02.433Z,25.81
2023-05-25T01:05:02.423Z,25.80
2023-05-25T01:06:02.398Z,25.81
2023-05-25T01:07:02.412Z,25.81
2023-05-25T01:08:02.436Z,25.81
2023-05-25T01:09:02.419Z,25.81
2023-05-25T01:10:02.434Z,25.80
2023-05-25T01:11:02.458Z,25.80
2023-05-25T01:12:02.456Z,25.81
2023-05-25T01:13:02.473Z,25.79
2023-05-25T01:14:02.468Z,25.81
2023-05-25T01:15:02.470Z,25.79
2023-05-25T01:16:02.498Z,25.80
2023-05-25T01:17:02.505Z,25.79
2023-05-25T01:18:02.551Z,25.81
2023-05-25T01:19:02.515Z,25.79
2023-05-25T01:20:10.524Z,25.81
2023-05-25T01:21:03.571Z,25.80
2023-05-25T01:22:02.502Z,25.79
2023-05-25T01:23:02.512Z,25.80
2023-05-25T01:24:02.487Z,25.80
2023-05-25T01:25:02.483Z,25.80
2023-05-25T01:26:02.484Z,25.79
2023-05-25T01:27:02.474Z,25.79
2023-05-25T01:28:02.481Z,25.79
2023-05-25T01:29:02.449Z,25.79
2023-05-25T01:30:02.480Z,25.77
2023-05-25T01:31:02.443Z,25.80
2023-05-25T01:32:02.455Z,25.77
2023-05-25T01:33:02.458Z,25.79
2023-05-25T01:34:02.426Z,25.79
2023-05-25T01:35:02.429Z,25.77
2023-05-25T01:36:02.420Z,25.77
2023-05-25T01:37:02.413Z,25.77
2023-05-25T01:38:02.421Z,25.77
2023-05-25T01:39:02.390Z,25.77
2023-05-25T01:40:02.379Z,25.77
2023-05-25T01:41:02.371Z,25.77
2023-05-25T01:42:02.356Z,25.77
2023-05-25T01:43:02.360Z,25.76
2023-05-25T01:44:02.378Z,25.76
2023-05-25T01:45:02.369Z,25.77
2023-05-25T01:46:02.346Z,25.79
2023-05-25T01:47:02.339Z,25.76
2023-05-25T01:48:02.376Z,25.76
2023-05-25T01:49:02.337Z,25.76
2023-05-25T01:50:02.372Z,25.77
2023-05-25T01:51:02.309Z,25.76
2023-05-25T01:52:02.348Z,25.77
2023-05-25T01:53:02.300Z,25.76
2023-05-25T01:54:02.316Z,25.74
2023-05-25T01:55:02.331Z,25.76
2023-05-25T01:56:02.334Z,25.76
2023-05-25T01:57:02.368Z,25.76
2023-05-25T01:58:02.379Z,25.74
2023-05-25T01:59:02.408Z,25.73
2023-05-25T02:00:02.433Z,25.76
2023-05-25T02:01:02.437Z,25.76
2023-05-25T02:02:02.501Z,25.76
2023-05-25T02:03:02.467Z,25.77
2023-05-25T02:04:02.477Z,25.76
2023-05-25T02:05:02.462Z,25.76
2023-05-25T02:06:02.457Z,25.74
2023-05-25T02:07:02.484Z,25.77
2023-05-25T02:08:02.468Z,25.74
2023-05-25T02:09:02.480Z,25.76
2023-05-25T02:10:02.511Z,25.76
2023-05-25T02:11:02.529Z,25.71
2023-05-25T02:12:02.531Z,25.74
2023-05-25T02:13:02.539Z,25.76
2023-05-25T02:14:02.565Z,25.76
2023-05-25T02:15:02.557Z,25.74
2023-05-25T02:16:02.605Z,25.73
2023-05-25T02:17:02.594Z,25.74
2023-05-25T02:18:02.655Z,25.74
2023-05-25T02:19:02.622Z,25.73
2023-05-25T02:20:02.679Z,25.74
2023-05-25T02:21:02.659Z,25.74
2023-05-25T02:22:02.687Z,25.73
2023-05-25T02:23:02.661Z,25.73
2023-05-25T02:24:02.692Z,25.73
2023-05-25T02:25:02.694Z,25.73
2023-05-25T02:26:02.711Z,25.71
2023-05-25T02:27:02.729Z,25.73
2023-05-25T02:28:02.731Z,25.71
2023-05-25T02:29:02.756Z,25.71
2023-05-25T02:30:02.749Z,25.70
2023-05-25T02:31:02.795Z,25.71
2023-05-25T02:32:02.781Z,25.70
2023-05-25T02:33:02.864Z,25.73
2023-05-25T02:34:02.809Z,25.71
2023-05-25T02:35:02.880Z,25.74
2023-05-25T02:36:02.848Z,25.74
2023-05-25T02:37:02.851Z,25.70
2023-05-25T02:38:02.867Z,25.73
2023-05-25T02:39:02.861Z,25.73
2023-05-25T02:40:02.888Z,25.71
2023-05-25T02:41:02.973Z,25.73
2023-05-25T02:42:02.910Z,25.70
2023-05-25T02:43:02.917Z,25.71
2023-05-25T02:44:02.923Z,25.69
2023-05-25T02:45:02.932Z,25.71
2023-05-25T02:46:02.984Z,25.70
2023-05-25T02:47:03.075Z,25.70
2023-05-25T02:48:02.998Z,25.73
2023-05-25T02:49:02.997Z,25.71
2023-05-25T02:50:02.992Z,25.71
2023-05-25T02:51:03.023Z,25.70
2023-05-25T02:52:03.043Z,25.70
2023-05-25T02:53:03.045Z,25.73
2023-05-25T02:54:03.069Z,25.70
2023-05-25T02:55:03.071Z,25.70
2023-05-25T02:56:03.097Z,25.70
2023-05-25T02:57:03.149Z,25.71
2023-05-25T02:58:03.116Z,25.70
2023-05-25T02:59:03.153Z,25.70
2023-05-25T03:00:03.150Z,25.71
2023-05-25T03:01:03.213Z,25.70
2023-05-25T03:02:03.186Z,25.70
2023-05-25T03:03:03.278Z,25.70
2023-05-25T03:04:03.445Z,25.69
2023-05-25T03:05:04.632Z,25.70
2023-05-25T03:06:03.216Z,25.69
2023-05-25T03:07:03.228Z,25.69
2023-05-25T03:08:03.248Z,25.73
2023-05-25T03:09:03.260Z,25.69
2023-05-25T03:10:03.274Z,25.70
2023-05-25T03:11:03.273Z,25.69
2023-05-25T03:12:03.309Z,25.70
2023-05-25T03:13:03.326Z,25.69
2023-05-25T03:14:03.348Z,25.66
2023-05-25T03:15:03.365Z,25.67
2023-05-25T03:16:03.366Z,25.70
2023-05-25T03:17:03.456Z,25.70
2023-05-25T03:18:03.431Z,25.71
2023-05-25T03:19:03.418Z,25.69
2023-05-25T03:20:03.462Z,25.69
2023-05-25T03:21:03.495Z,25.70
2023-05-25T03:22:03.445Z,25.69
2023-05-25T03:23:03.468Z,25.69
2023-05-25T03:24:03.492Z,25.67
2023-05-25T03:25:03.499Z,25.70
2023-05-25T03:26:03.501Z,25.69
2023-05-25T03:27:03.512Z,25.67
2023-05-25T03:28:03.530Z,25.67
2023-05-25T03:29:03.554Z,25.69
2023-05-25T03:30:03.566Z,25.67
2023-05-25T03:31:03.569Z,25.67
2023-05-25T03:32:03.603Z,25.69
2023-05-25T03:33:03.665Z,25.69
2023-05-25T03:34:03.621Z,25.67
2023-05-25T03:35:03.615Z,25.70
2023-05-25T03:36:03.620Z,25.69
2023-05-25T03:37:03.634Z,25.69
2023-05-25T03:38:03.660Z,25.66
2023-05-25T03:39:03.676Z,25.67
2023-05-25T03:40:03.686Z,25.69
2023-05-25T03:41:03.698Z,25.70
2023-05-25T03:42:03.720Z,25.70
2023-05-25T03:43:03.738Z,25.70
2023-05-25T03:44:03.766Z,25.69
2023-05-25T03:45:03.777Z,25.67
2023-05-25T03:46:03.823Z,25.66
2023-05-25T03:47:03.801Z,25.64
2023-05-25T03:48:03.872Z,25.64
2023-05-25T03:49:03.847Z,25.66
2023-05-25T03:50:03.853Z,25.69
2023-05-25T03:51:03.870Z,25.69
2023-05-25T03:52:03.896Z,25.66
2023-05-25T03:53:03.908Z,25.67
2023-05-25T03:54:03.916Z,25.66
2023-05-25T03:55:03.957Z,25.69
2023-05-25T03:56:03.950Z,25.67
2023-05-25T03:57:03.965Z,25.67
2023-05-25T03:58:03.992Z,25.67
2023-05-25T03:59:04.005Z,25.67
2023-05-25T04:00:04.016Z,25.66
2023-05-25T04:01:05.333Z,25.70
2023-05-25T04:02:04.051Z,25.67
2023-05-25T04:03:04.150Z,25.67
2023-05-25T04:04:04.115Z,25.69
2023-05-25T04:05:04.088Z,25.67
2023-05-25T04:06:04.110Z,25.66
2023-05-25T04:07:04.132Z,25.66
2023-05-25T04:08:04.184Z,25.66
2023-05-25T04:09:04.154Z,25.67
2023-05-25T04:10:04.181Z,25.69
2023-05-25T04:11:04.186Z,25.67
2023-05-25T04:12:04.209Z,25.69
2023-05-25T04:13:04.227Z,25.67
2023-05-25T04:14:04.241Z,25.66
2023-05-25T04:15:04.249Z,25.66
2023-05-25T04:16:04.297Z,25.66
2023-05-25T04:17:04.272Z,25.66
2023-05-25T04:18:04.339Z,25.66
2023-05-25T04:19:04.301Z,25.67
2023-05-25T04:20:04.343Z,25.66
2023-05-25T04:21:04.331Z,25.67
2023-05-25T04:22:04.337Z,25.67
2023-05-25T04:23:04.423Z,25.67
2023-05-25T04:24:04.379Z,25.67
2023-05-25T04:25:04.397Z,25.67
2023-05-25T04:26:04.404Z,25.67
2023-05-25T04:27:04.422Z,25.69
2023-05-25T04:28:04.439Z,25.67
2023-05-25T04:29:04.459Z,25.67
2023-05-25T04:30:04.463Z,25.69
2023-05-25T04:31:04.482Z,25.64
2023-05-25T04:32:04.699Z,25.67
2023-05-25T04:33:04.572Z,25.67
2023-05-25T04:34:04.538Z,25.66
2023-05-25T04:35:04.570Z,25.67
2023-05-25T04:36:04.565Z,25.70
2023-05-25T04:37:04.585Z,25.67
2023-05-25T04:38:04.603Z,25.67
2023-05-25T04:39:04.618Z,25.67
2023-05-25T04:40:04.713Z,25.67
2023-05-25T04:41:04.663Z,25.67
2023-05-25T04:42:05.056Z,25.67
2023-05-25T04:43:04.701Z,25.67
2023-05-25T04:44:09.621Z,25.67
2023-05-25T04:45:05.697Z,25.67
2023-05-25T04:46:04.707Z,25.67
2023-05-25T04:47:04.668Z,25.69
2023-05-25T04:48:04.698Z,25.67
2023-05-25T04:49:04.655Z,25.66
2023-05-25T04:50:04.654Z,25.66
2023-05-25T04:51:04.691Z,25.66
2023-05-25T04:52:04.657Z,25.67
2023-05-25T04:53:04.616Z,25.66
2023-05-25T04:54:04.633Z,25.67
2023-05-25T04:55:04.618Z,25.69
2023-05-25T04:56:04.605Z,25.67
2023-05-25T04:57:04.624Z,25.67
2023-05-25T04:58:04.612Z,25.69
2023-05-25T04:59:04.596Z,25.70
2023-05-25T05:00:04.593Z,25.70
2023-05-25T05:01:04.612Z,25.69
2023-05-25T05:02:04.565Z,25.70
2023-05-25T05:03:04.660Z,25.67
2023-05-25T05:04:04.713Z,25.70
2023-05-25T05:05:04.541Z,25.69
2023-05-25T05:06:04.540Z,25.69
2023-05-25T05:07:04.530Z,25.70
2023-05-25T05:08:04.541Z,25.70
2023-05-25T05:09:04.546Z,25.71
2023-05-25T05:10:04.561Z,25.71
2023-05-25T05:11:04.529Z,25.71
2023-05-25T05:12:04.539Z,25.69
2023-05-25T05:13:04.517Z,25.70
2023-05-25T05:14:04.525Z,25.70
2023-05-25T05:15:04.540Z,25.70
2023-05-25T05:16:04.575Z,25.71
2023-05-25T05:17:04.687Z,25.71
2023-05-25T05:18:04.623Z,25.71
2023-05-25T05:19:04.609Z,25.71
2023-05-25T05:20:04.660Z,25.70
2023-05-25T05:21:04.614Z,25.70
2023-05-25T05:22:04.636Z,25.71
2023-05-25T05:23:04.659Z,25.71
2023-05-25T05:24:04.659Z,25.71
2023-05-25T05:25:04.674Z,25.70
2023-05-25T05:26:04.742Z,25.71
2023-05-25T05:27:05.012Z,25.73
2023-05-25T05:28:04.735Z,25.69
2023-05-25T05:29:04.752Z,25.69
2023-05-25T05:30:04.772Z,25.62
2023-05-25T05:31:04.815Z,25.52
2023-05-25T05:32:04.806Z,25.56
2023-05-25T05:33:04.834Z,25.46
2023-05-25T05:34:04.841Z,25.53
2023-05-25T05:35:04.824Z,25.60
2023-05-25T05:36:04.823Z,25.63
2023-05-25T05:37:04.858Z,25.71
2023-05-25T05:38:04.874Z,25.69
2023-05-25T05:39:04.877Z,25.69
2023-05-25T05:40:04.976Z,25.77
2023-05-25T05:41:04.914Z,25.84
2023-05-25T05:42:04.929Z,25.88
2023-05-25T05:43:04.926Z,25.91
2023-05-25T05:44:05.053Z,25.91
2023-05-25T05:45:04.903Z,25.98
2023-05-25T05:46:04.923Z,26.01
2023-05-25T05:47:04.913Z,26.07
2023-05-25T05:48:04.977Z,26.08
2023-05-25T05:49:04.947Z,26.14
2023-05-25T05:50:05.008Z,26.21
2023-05-25T05:51:05.053Z,26.08
2023-05-25T05:52:05.115Z,26.21
2023-05-25T05:53:05.169Z,26.24
2023-05-25T05:54:05.261Z,26.31
2023-05-25T05:55:05.293Z,26.34
2023-05-25T05:56:05.355Z,26.34
2023-05-25T05:57:05.416Z,26.34
2023-05-25T05:58:05.489Z,26.43
2023-05-25T05:59:05.538Z,26.43
2023-05-25T06:00:05.597Z,26.46
2023-05-25T06:01:05.640Z,26.55
2023-05-25T06:02:05.684Z,26.53
2023-05-25T06:03:05.743Z,26.60
2023-05-25T06:04:05.767Z,26.62
2023-05-25T06:05:05.796Z,26.60
2023-05-25T06:06:05.918Z,26.62
2023-05-25T06:07:05.881Z,26.62
2023-05-25T06:08:06.197Z,26.64
2023-05-25T06:09:05.898Z,26.73
2023-05-25T06:10:05.916Z,26.71
2023-05-25T06:11:05.951Z,26.72
2023-05-25T06:12:05.950Z,26.72
2023-05-25T06:13:05.968Z,26.76
2023-05-25T06:14:05.992Z,26.75
2023-05-25T06:15:05.999Z,26.78
2023-05-25T06:16:06.090Z,26.79
2023-05-25T06:17:06.135Z,26.79
2023-05-25T06:18:06.144Z,26.83
2023-05-25T06:19:06.075Z,26.83
2023-05-25T06:20:06.082Z,26.86
2023-05-25T06:21:06.065Z,26.86
2023-05-25T06:22:06.045Z,26.86
2023-05-25T06:23:06.061Z,26.87
2023-05-25T06:24:06.045Z,26.89
2023-05-25T06:25:06.055Z,26.92
2023-05-25T06:26:06.042Z,26.96
2023-05-25T06:27:06.035Z,26.94
2023-05-25T06:28:06.030Z,26.92
2023-05-25T06:29:06.035Z,27.03
2023-05-25T06:30:06.040Z,27.00
2023-05-25T06:31:06.060Z,26.97
2023-05-25T06:32:06.198Z,26.92
2023-05-25T06:33:06.085Z,26.63
2023-05-25T06:34:06.560Z,26.73
2023-05-25T06:35:08.026Z,26.66
2023-05-25T06:36:06.072Z,26.59
2023-05-25T06:37:06.079Z,26.73
2023-05-25T06:38:06.058Z,26.80
2023-05-25T06:39:06.081Z,26.34
2023-05-25T06:40:06.102Z,25.73
2023-05-25T06:41:06.140Z,25.47
2023-05-25T06:42:06.175Z,25.50
2023-05-25T06:43:06.239Z,25.43
2023-05-25T06:44:06.233Z,25.59
2023-05-25T06:45:06.224Z,25.70
2023-05-25T06:46:06.224Z,25.73
2023-05-25T06:47:06.202Z,25.74
2023-05-25T06:48:06.322Z,25.80
2023-05-25T06:49:06.212Z,25.84
2023-05-25T06:50:06.218Z,25.88
2023-05-25T06:51:06.259Z,25.94
2023-05-25T06:52:06.329Z,25.97
2023-05-25T06:53:06.361Z,26.02
2023-05-25T06:54:06.569Z,26.02
2023-05-25T06:55:06.494Z,26.07
2023-05-25T06:56:06.558Z,26.09
2023-05-25T06:57:06.678Z,26.14
2023-05-25T06:58:06.649Z,26.17
2023-05-25T06:59:07.096Z,26.18
2023-05-25T07:00:06.754Z,25.94
2023-05-25T07:01:06.827Z,25.88
2023-05-25T07:02:06.860Z,25.88
2023-05-25T07:03:07.016Z,25.40
2023-05-25T07:04:07.041Z,25.21
2023-05-25T07:05:07.053Z,25.16
2023-05-25T07:06:06.994Z,25.15
2023-05-25T07:07:07.003Z,25.05
2023-05-25T07:08:06.988Z,25.12
2023-05-25T07:09:07.013Z,25.19
2023-05-25T07:10:06.992Z,25.18
2023-05-25T07:11:06.987Z,25.25
2023-05-25T07:12:07.004Z,25.09
2023-05-25T07:13:06.998Z,25.32
2023-05-25T07:14:07.080Z,25.44
2023-05-25T07:15:06.994Z,25.60
2023-05-25T07:16:07.123Z,25.39
2023-05-25T07:17:06.986Z,25.32
2023-05-25T07:18:07.031Z,24.92
2023-05-25T07:19:07.120Z,24.75
2023-05-25T07:20:07.046Z,24.61
2023-05-25T07:21:07.018Z,24.65
2023-05-25T07:22:07.013Z,24.50
2023-05-25T07:23:07.016Z,24.30
2023-05-25T07:24:07.101Z,24.21
2023-05-25T07:25:07.086Z,24.00
2023-05-25T07:26:07.118Z,23.97
2023-05-25T07:27:07.165Z,23.84
2023-05-25T07:28:07.214Z,23.95
2023-05-25T07:29:07.596Z,23.79
2023-05-25T07:30:07.351Z,23.79
2023-05-25T07:31:07.460Z,23.79
2023-05-25T07:32:07.473Z,24.09
2023-05-25T07:33:07.625Z,24.43
2023-05-25T07:34:07.561Z,24.70
2023-05-25T07:35:07.591Z,24.93
2023-05-25T07:36:07.589Z,25.12
2023-05-25T07:37:07.620Z,25.36
2023-05-25T07:38:07.611Z,25.56
2023-05-25T07:39:08.103Z,25.69
2023-05-25T07:40:07.678Z,25.85
2023-05-25T07:41:07.735Z,26.05
2023-05-25T07:42:07.786Z,26.20
2023-05-25T07:43:08.575Z,26.28
2023-05-25T07:44:08.095Z,26.42
2023-05-25T07:45:07.846Z,26.56
2023-05-25T07:46:07.858Z,26.71
2023-05-25T07:47:08.047Z,26.75
2023-05-25T07:48:07.956Z,26.85
2023-05-25T07:49:07.926Z,26.96
2023-05-25T07:50:07.940Z,27.02
2023-05-25T07:51:08.018Z,27.07
2023-05-25T07:52:08.046Z,27.15
2023-05-25T07:53:08.111Z,27.23
2023-05-25T07:54:08.149Z,27.29
2023-05-25T07:55:08.229Z,27.36
2023-05-25T07:56:10.537Z,27.41
2023-05-25T07:57:08.314Z,27.47
2023-05-25T07:58:08.334Z,27.50
2023-05-25T07:59:08.630Z,27.57
2023-05-25T08:00:08.386Z,27.64
2023-05-25T08:01:08.430Z,27.68
2023-05-25T08:02:08.453Z,27.66
2023-05-25T08:03:08.550Z,27.64
2023-05-25T08:04:08.731Z,27.78
2023-05-25T08:05:08.555Z,27.72
2023-05-25T08:06:08.509Z,27.72
2023-05-25T08:07:08.534Z,27.72
2023-05-25T08:08:08.532Z,27.81
2023-05-25T08:09:08.623Z,27.80
2023-05-25T08:10:08.573Z,27.81
2023-05-25T08:11:08.596Z,27.84
2023-05-25T08:12:30.577Z,27.88
2023-05-25T08:13:09.584Z,27.95
2023-05-25T08:14:08.605Z,28.01
2023-05-25T08:15:08.568Z,27.99
2023-05-25T08:16:08.561Z,28.03
2023-05-25T08:17:08.634Z,28.01
2023-05-25T08:18:08.583Z,28.13
2023-05-25T08:19:08.616Z,28.08
2023-05-25T08:20:08.553Z,28.03
2023-05-25T08:21:08.534Z,27.77
2023-05-25T08:22:08.525Z,27.77
2023-05-25T08:23:08.503Z,27.74
2023-05-25T08:24:08.665Z,27.72
2023-05-25T08:25:08.540Z,27.80
2023-05-25T08:26:28.649Z,27.78
2023-05-25T08:27:09.476Z,27.80
2023-05-25T08:28:08.487Z,27.85
2023-05-25T08:29:08.470Z,27.88
2023-05-25T08:30:08.482Z,27.92
2023-05-25T08:31:08.558Z,27.96
2023-05-25T08:32:08.447Z,27.99
2023-05-25T08:33:08.448Z,27.99
2023-05-25T08:34:08.435Z,28.01
2023-05-25T08:35:08.455Z,28.02
2023-05-25T08:36:08.420Z,27.98
2023-05-25T08:37:08.431Z,27.65
2023-05-25T08:38:08.413Z,27.74
2023-05-25T08:39:08.400Z,27.77
2023-05-25T08:40:08.420Z,27.81
2023-05-25T08:41:08.415Z,27.89
2023-05-25T08:42:08.368Z,27.96
2023-05-25T08:43:08.360Z,28.01
2023-05-25T08:44:08.376Z,27.93
2023-05-25T08:45:10.789Z,27.99
2023-05-25T08:46:08.402Z,28.02
2023-05-25T08:47:08.334Z,27.99
2023-05-25T08:48:08.480Z,28.03
2023-05-25T08:49:08.412Z,28.08
2023-05-25T08:50:08.322Z,28.05
2023-05-25T08:51:10.278Z,28.06
2023-05-25T08:52:08.419Z,28.08
2023-05-25T08:53:08.399Z,28.09
2023-05-25T08:54:08.389Z,28.11
2023-05-25T08:55:08.441Z,28.19
2023-05-25T08:56:08.413Z,28.15
2023-05-25T08:57:08.381Z,28.18
2023-05-25T08:58:08.379Z,28.19
2023-05-25T08:59:08.640Z,28.15
2023-05-25T09:00:08.392Z,28.08
2023-05-25T09:01:08.382Z,28.16
2023-05-25T09:02:08.472Z,28.20
2023-05-25T09:03:08.452Z,28.19
2023-05-25T09:04:08.398Z,28.19
2023-05-25T09:05:08.377Z,28.19
2023-05-25T09:06:08.390Z,28.15
2023-05-25T09:07:10.958Z,28.19
2023-05-25T09:08:08.361Z,28.13
2023-05-25T09:09:08.343Z,28.20
2023-05-25T09:10:08.344Z,28.22
2023-05-25T09:11:09.961Z,28.19
2023-05-25T09:12:08.324Z,28.20
2023-05-25T09:14:08.334Z,28.15
2023-05-25T09:15:08.313Z,28.15
2023-05-25T09:16:08.319Z,28.16
2023-05-25T09:17:08.304Z,28.19
2023-05-25T09:18:09.126Z,28.15
2023-05-25T09:19:08.650Z,28.19
2023-05-25T09:20:08.301Z,28.19
2023-05-25T09:21:08.342Z,28.16
2023-05-25T09:22:15.722Z,28.26
2023-05-25T09:23:09.271Z,28.24
2023-05-25T09:24:08.632Z,28.27
2023-05-25T09:25:08.271Z,28.24
2023-05-25T09:26:08.260Z,28.24
2023-05-25T09:27:08.254Z,28.12
2023-05-25T09:28:24.745Z,28.09
2023-05-25T09:29:09.242Z,28.01
2023-05-25T09:30:08.234Z,27.75
2023-05-25T09:31:08.243Z,27.89
2023-05-25T09:32:08.284Z,27.93
2023-05-25T09:33:08.276Z,27.75
2023-05-25T09:34:08.653Z,27.68
2023-05-25T09:35:08.200Z,27.77
2023-05-25T09:36:08.177Z,27.80
2023-05-25T09:37:08.346Z,27.68
2023-05-25T09:38:08.269Z,27.62
2023-05-25T09:39:08.210Z,27.48
2023-05-25T09:40:08.149Z,27.45
2023-05-25T09:41:08.155Z,27.42
2023-05-25T09:42:08.148Z,27.40
2023-05-25T09:43:08.145Z,27.36
2023-05-25T09:44:11.824Z,27.34
2023-05-25T09:45:08.123Z,27.33
2023-05-25T09:46:08.160Z,27.34
2023-05-25T09:47:08.192Z,27.37
2023-05-25T09:48:08.175Z,27.36
2023-05-25T09:49:08.166Z,27.36
2023-05-25T09:50:08.097Z,27.40
2023-05-25T09:51:08.096Z,27.36
2023-05-25T09:52:08.111Z,27.34
2023-05-25T09:53:08.074Z,27.34
2023-05-25T09:54:08.079Z,27.30
2023-05-25T09:55:08.062Z,27.33
2023-05-25T09:56:08.038Z,27.29
2023-05-25T09:57:08.028Z,27.26
2023-05-25T09:58:08.056Z,27.27
2023-05-25T09:59:08.151Z,27.26
2023-05-25T10:00:08.034Z,27.24
2023-05-25T10:01:08.069Z,27.11
2023-05-25T10:02:08.014Z,27.14
2023-05-25T10:03:08.152Z,27.15
2023-05-25T10:04:08.185Z,27.15
2023-05-25T10:05:08.049Z,27.14
2023-05-25T10:06:07.988Z,27.14
2023-05-25T10:07:07.975Z,27.14
2023-05-25T10:08:08.020Z,27.14
2023-05-25T10:09:08.028Z,27.13
2023-05-25T10:10:08.077Z,27.11
2023-05-25T10:11:08.157Z,27.11
2023-05-25T10:12:08.220Z,27.13
2023-05-25T10:13:08.277Z,27.13
2023-05-25T10:14:08.318Z,27.10
2023-05-25T10:15:08.357Z,27.07
2023-05-25T10:16:08.451Z,27.09
2023-05-25T10:17:08.475Z,27.09
2023-05-25T10:18:08.572Z,27.07
2023-05-25T10:19:08.682Z,27.11
2023-05-25T10:20:08.816Z,27.07
2023-05-25T10:21:08.773Z,27.10
2023-05-25T10:22:08.792Z,27.09
2023-05-25T10:23:08.829Z,26.96
2023-05-25T10:24:09.177Z,26.89
2023-05-25T10:25:08.889Z,27.06
2023-05-25T10:26:09.375Z,27.20
2023-05-25T10:27:25.215Z,27.30
2023-05-25T10:28:10.028Z,27.33
2023-05-25T10:29:09.021Z,27.38
2023-05-25T10:30:09.037Z,27.38
2023-05-25T10:31:09.037Z,27.42
2023-05-25T10:32:09.055Z,27.61
2023-05-25T10:33:09.044Z,27.74
2023-05-25T10:34:09.170Z,27.77
2023-05-25T10:35:08.977Z,27.81
2023-05-25T10:36:11.212Z,27.88
2023-05-25T10:37:09.125Z,27.98
2023-05-25T10:38:09.124Z,27.93
2023-05-25T10:39:09.302Z,27.98
2023-05-25T10:40:09.124Z,28.03
2023-05-25T10:41:09.147Z,28.06
2023-05-25T10:42:09.141Z,28.15
2023-05-25T10:43:09.140Z,28.08
2023-05-25T10:44:09.149Z,28.01
2023-05-25T10:45:09.160Z,28.05
2023-05-25T10:46:09.150Z,28.05
2023-05-25T10:47:09.201Z,27.87
2023-05-25T10:48:09.173Z,27.92
2023-05-25T10:49:09.190Z,27.93
2023-05-25T10:50:09.157Z,27.72
2023-05-25T10:51:11.114Z,27.68
2023-05-25T10:52:09.159Z,27.69
2023-05-25T10:53:09.163Z,27.42
2023-05-25T10:54:09.176Z,27.44
2023-05-25T10:55:09.151Z,27.47
2023-05-25T10:56:09.141Z,27.23
2023-05-25T10:57:09.129Z,27.36
2023-05-25T10:58:09.110Z,27.29
2023-05-25T10:59:09.176Z,27.40
2023-05-25T11:00:09.107Z,27.15
2023-05-25T11:01:09.205Z,27.14
2023-05-25T11:02:09.432Z,27.13
2023-05-25T11:03:09.161Z,27.10
2023-05-25T11:04:09.216Z,27.02
2023-05-25T11:05:09.085Z,27.13
2023-05-25T11:06:09.076Z,27.10
2023-05-25T11:07:09.079Z,27.03
2023-05-25T11:08:09.193Z,27.02
2023-05-25T11:09:09.077Z,26.87
2023-05-25T11:10:09.059Z,26.87
2023-05-25T11:11:09.046Z,26.96
2023-05-25T11:12:09.049Z,27.00
2023-05-25T11:13:09.019Z,27.02
2023-05-25T11:14:09.021Z,27.27
2023-05-25T11:15:09.029Z,27.21
2023-05-25T11:16:09.013Z,27.17
2023-05-25T11:17:09.099Z,27.31
2023-05-25T11:18:09.056Z,27.20
2023-05-25T11:19:08.993Z,27.09
2023-05-25T11:20:09.042Z,27.06
2023-05-25T11:21:08.981Z,26.96
2023-05-25T11:22:08.958Z,26.80
2023-05-25T11:23:08.959Z,26.90
2023-05-25T11:24:08.961Z,26.94
2023-05-25T11:25:08.959Z,26.83
2023-05-25T11:26:08.940Z,26.99
2023-05-25T11:27:09.707Z,27.04
2023-05-25T11:28:09.005Z,27.07
2023-05-25T11:29:08.948Z,27.13
2023-05-25T11:30:08.929Z,27.11
2023-05-25T11:31:08.976Z,27.20
2023-05-25T11:32:08.919Z,27.20
2023-05-25T11:33:09.018Z,27.21
2023-05-25T11:34:08.946Z,27.29
2023-05-25T11:35:09.004Z,27.31
2023-05-25T11:36:09.021Z,27.36
2023-05-25T11:37:10.329Z,27.37
2023-05-25T11:38:09.245Z,27.38
2023-05-25T11:39:20.410Z,27.45
2023-05-25T11:40:10.262Z,27.44
2023-05-25T11:41:09.247Z,27.50
2023-05-25T11:42:09.227Z,27.51
2023-05-25T11:43:09.231Z,27.51
2023-05-25T11:44:09.214Z,27.54
2023-05-25T11:45:09.203Z,27.55
2023-05-25T11:46:09.246Z,27.57
2023-05-25T11:47:09.209Z,27.58
2023-05-25T11:48:09.257Z,27.58
2023-05-25T11:49:09.228Z,27.61
2023-05-25T11:50:09.168Z,27.64
2023-05-25T11:51:09.203Z,27.64
2023-05-25T11:52:09.187Z,27.62
2023-05-25T11:53:09.150Z,27.65
2023-05-25T11:54:09.145Z,27.68
2023-05-25T11:55:09.151Z,27.68
2023-05-25T11:56:09.152Z,27.69
2023-05-25T11:57:09.141Z,27.69
2023-05-25T11:58:09.136Z,27.68
2023-05-25T11:59:09.154Z,27.69
2023-05-25T12:00:09.119Z,27.72
2023-05-25T12:01:09.099Z,27.72
2023-05-25T12:02:09.091Z,27.74
2023-05-25T12:03:09.160Z,27.72
2023-05-25T12:04:09.315Z,27.72
2023-05-25T12:05:10.906Z,27.72
2023-05-25T12:06:09.134Z,27.72
2023-05-25T12:07:09.144Z,27.72
2023-05-25T12:08:09.122Z,27.71
2023-05-25T12:09:09.135Z,27.74
2023-05-25T12:10:09.191Z,27.74
2023-05-25T12:11:09.187Z,27.72
2023-05-25T12:12:09.232Z,27.72
2023-05-25T12:13:09.163Z,27.71
2023-05-25T12:14:09.183Z,27.74
2023-05-25T12:15:09.208Z,27.71
2023-05-25T12:16:09.194Z,27.74
2023-05-25T12:17:09.280Z,27.72
2023-05-25T12:18:09.340Z,27.69
2023-05-25T12:19:09.247Z,27.72
2023-05-25T12:20:09.333Z,27.72
2023-05-25T12:21:09.262Z,27.71
2023-05-25T12:22:09.256Z,27.72
2023-05-25T12:23:09.257Z,27.71
2023-05-25T12:24:09.268Z,27.71
2023-05-25T12:25:09.298Z,27.72
2023-05-25T12:26:09.303Z,27.69
2023-05-25T12:27:09.324Z,27.71
2023-05-25T12:28:09.330Z,27.69
2023-05-25T12:29:09.321Z,27.71
2023-05-25T12:30:09.352Z,27.71
2023-05-25T12:31:09.363Z,27.71
2023-05-25T12:32:09.339Z,27.69
2023-05-25T12:33:09.411Z,27.71
2023-05-25T12:34:09.374Z,27.71
2023-05-25T12:35:09.382Z,27.69
2023-05-25T12:36:09.413Z,27.68
2023-05-25T12:37:09.412Z,27.72
2023-05-25T12:38:09.448Z,27.69
2023-05-25T12:39:09.442Z,27.74
2023-05-25T12:40:09.448Z,27.58
2023-05-25T12:41:09.473Z,27.66
2023-05-25T12:42:09.486Z,27.71
2023-05-25T12:43:09.498Z,27.74
2023-05-25T12:44:09.544Z,27.75
2023-05-25T12:45:09.535Z,27.75
2023-05-25T12:46:09.563Z,27.80
2023-05-25T12:47:09.517Z,27.84
2023-05-25T12:48:09.613Z,27.81
2023-05-25T12:49:09.542Z,27.81
2023-05-25T12:50:09.588Z,27.84
2023-05-25T12:51:09.548Z,27.87
2023-05-25T12:52:09.529Z,27.88
2023-05-25T12:53:09.586Z,27.87